sensor_id;sensor_type;location;lat;lon;timestamp;temperature;humidity
77247;SHT35;66279;42.820;23.374;2023-02-17T00:02:06;-3.19;83.27
77247;SHT35;66279;42.820;23.374;2023-02-17T00:04:32;-3.26;84.17
77247;SHT35;66279;42.820;23.374;2023-02-17T00:06:58;-3.31;84.36
77247;SHT35;66279;42.820;23.374;2023-02-17T00:09:24;-3.34;84.91
77247;SHT35;66279;42.820;23.374;2023-02-17T00:11:50;-3.42;85.14
77247;SHT35;66279;42.820;23.374;2023-02-17T00:14:16;-3.45;85.12
77247;SHT35;66279;42.820;23.374;2023-02-17T00:16:43;-3.53;84.50
77247;SHT35;66279;42.820;23.374;2023-02-17T00:19:10;-3.55;84.96
77247;SHT35;66279;42.820;23.374;2023-02-17T00:21:53;-3.63;83.60
77247;SHT35;66279;42.820;23.374;2023-02-17T00:24:20;-3.67;84.84
77247;SHT35;66279;42.820;23.374;2023-02-17T00:26:45;-3.63;85.92
77247;SHT35;66279;42.820;23.374;2023-02-17T00:29:11;-3.62;85.50
77247;SHT35;66279;42.820;23.374;2023-02-17T00:31:51;-3.57;85.49
77247;SHT35;66279;42.820;23.374;2023-02-17T00:34:17;-3.57;84.71
77247;SHT35;66279;42.820;23.374;2023-02-17T00:36:42;-3.55;84.61
77247;SHT35;66279;42.820;23.374;2023-02-17T00:39:10;-3.66;84.70
77247;SHT35;66279;42.820;23.374;2023-02-17T00:41:36;-3.67;86.24
77247;SHT35;66279;42.820;23.374;2023-02-17T00:44:01;-3.69;86.27
77247;SHT35;66279;42.820;23.374;2023-02-17T00:46:27;-3.63;86.04
77247;SHT35;66279;42.820;23.374;2023-02-17T00:48:53;-3.73;84.80
77247;SHT35;66279;42.820;23.374;2023-02-17T00:51:19;-3.81;85.83
77247;SHT35;66279;42.820;23.374;2023-02-17T00:53:44;-3.78;85.70
77247;SHT35;66279;42.820;23.374;2023-02-17T00:56:10;-3.86;85.86
77247;SHT35;66279;42.820;23.374;2023-02-17T00:58:36;-3.87;86.10
77247;SHT35;66279;42.820;23.374;2023-02-17T01:01:02;-3.91;86.14
77247;SHT35;66279;42.820;23.374;2023-02-17T01:03:28;-3.93;86.54
77247;SHT35;66279;42.820;23.374;2023-02-17T01:05:55;-3.94;85.89
77247;SHT35;66279;42.820;23.374;2023-02-17T01:08:21;-3.97;86.18
77247;SHT35;66279;42.820;23.374;2023-02-17T01:10:48;-3.81;87.57
77247;SHT35;66279;42.820;23.374;2023-02-17T01:13:15;-3.81;85.77
77247;SHT35;66279;42.820;23.374;2023-02-17T01:15:43;-3.84;85.90
77247;SHT35;66279;42.820;23.374;2023-02-17T01:18:09;-3.86;85.76
77247;SHT35;66279;42.820;23.374;2023-02-17T01:20:36;-3.77;87.13
77247;SHT35;66279;42.820;23.374;2023-02-17T01:23:03;-3.74;86.31
77247;SHT35;66279;42.820;23.374;2023-02-17T01:25:29;-3.77;86.16
77247;SHT35;66279;42.820;23.374;2023-02-17T01:27:54;-3.77;85.80
77247;SHT35;66279;42.820;23.374;2023-02-17T01:30:20;-3.83;85.81
77247;SHT35;66279;42.820;23.374;2023-02-17T01:32:46;-3.88;85.89
77247;SHT35;66279;42.820;23.374;2023-02-17T01:35:11;-3.86;86.44
77247;SHT35;66279;42.820;23.374;2023-02-17T01:37:37;-3.83;87.15
77247;SHT35;66279;42.820;23.374;2023-02-17T01:40:03;-3.84;86.32
77247;SHT35;66279;42.820;23.374;2023-02-17T01:42:28;-3.86;86.24
77247;SHT35;66279;42.820;23.374;2023-02-17T01:47:44;-3.86;86.70
77247;SHT35;66279;42.820;23.374;2023-02-17T01:50:13;-3.87;85.40
77247;SHT35;66279;42.820;23.374;2023-02-17T01:52:40;-3.87;85.54
77247;SHT35;66279;42.820;23.374;2023-02-17T01:55:14;-4.00;85.14
77247;SHT35;66279;42.820;23.374;2023-02-17T01:57:42;-4.04;85.78
77247;SHT35;66279;42.820;23.374;2023-02-17T02:00:09;-4.05;85.45
77247;SHT35;66279;42.820;23.374;2023-02-17T02:02:36;-4.09;84.81
77247;SHT35;66279;42.820;23.374;2023-02-17T02:05:02;-4.11;85.11
77247;SHT35;66279;42.820;23.374;2023-02-17T02:07:34;-4.18;85.24
77247;SHT35;66279;42.820;23.374;2023-02-17T02:10:01;-4.19;85.83
77247;SHT35;66279;42.820;23.374;2023-02-17T02:12:35;-4.18;85.77
77247;SHT35;66279;42.820;23.374;2023-02-17T02:34:22;-4.30;86.39
77247;SHT35;66279;42.820;23.374;2023-02-17T02:36:55;-4.36;86.30
77247;SHT35;66279;42.820;23.374;2023-02-17T02:39:29;-4.42;86.08
77247;SHT35;66279;42.820;23.374;2023-02-17T02:42:07;-4.42;87.36
77247;SHT35;66279;42.820;23.374;2023-02-17T02:44:33;-4.39;86.83
77247;SHT35;66279;42.820;23.374;2023-02-17T02:47:46;-4.42;85.65
77247;SHT35;66279;42.820;23.374;2023-02-17T02:49:45;-4.44;86.73
77247;SHT35;66279;42.820;23.374;2023-02-17T02:52:14;-4.42;87.15
77247;SHT35;66279;42.820;23.374;2023-02-17T02:55:02;-4.38;86.42
77247;SHT35;66279;42.820;23.374;2023-02-17T02:57:38;-4.39;85.65
77247;SHT35;66279;42.820;23.374;2023-02-17T03:02:44;-4.49;84.68
77247;SHT35;66279;42.820;23.374;2023-02-17T03:05:36;-4.58;85.28
77247;SHT35;66279;42.820;23.374;2023-02-17T03:08:48;-4.60;86.45
77247;SHT35;66279;42.820;23.374;2023-02-17T03:10:53;-4.60;87.43
77247;SHT35;66279;42.820;23.374;2023-02-17T03:13:19;-4.60;87.37
77247;SHT35;66279;42.820;23.374;2023-02-17T03:15:46;-4.62;87.08
77247;SHT35;66279;42.820;23.374;2023-02-17T03:18:12;-4.65;87.06
77247;SHT35;66279;42.820;23.374;2023-02-17T03:20:43;-4.65;88.04
77247;SHT35;66279;42.820;23.374;2023-02-17T03:23:10;-4.72;87.17
77247;SHT35;66279;42.820;23.374;2023-02-17T03:25:35;-4.75;87.19
77247;SHT35;66279;42.820;23.374;2023-02-17T03:28:01;-4.77;88.11
77247;SHT35;66279;42.820;23.374;2023-02-17T03:30:27;-4.72;88.04
77247;SHT35;66279;42.820;23.374;2023-02-17T03:32:52;-4.77;87.33
77247;SHT35;66279;42.820;23.374;2023-02-17T03:35:18;-4.76;87.36
77247;SHT35;66279;42.820;23.374;2023-02-17T03:37:44;-4.70;87.26
77247;SHT35;66279;42.820;23.374;2023-02-17T03:40:09;-4.69;87.99
77247;SHT35;66279;42.820;23.374;2023-02-17T03:42:35;-4.72;86.96
77247;SHT35;66279;42.820;23.374;2023-02-17T03:45:01;-4.65;87.38
77247;SHT35;66279;42.820;23.374;2023-02-17T03:47:26;-4.56;89.05
77247;SHT35;66279;42.820;23.374;2023-02-17T03:49:52;-4.52;89.13
77247;SHT35;66279;42.820;23.374;2023-02-17T03:52:18;-4.50;87.58
77247;SHT35;66279;42.820;23.374;2023-02-17T03:54:43;-4.53;87.63
77247;SHT35;66279;42.820;23.374;2023-02-17T03:57:09;-4.49;87.93
77247;SHT35;66279;42.820;23.374;2023-02-17T03:59:35;-4.48;87.44
77247;SHT35;66279;42.820;23.374;2023-02-17T04:02:00;-4.56;87.38
77247;SHT35;66279;42.820;23.374;2023-02-17T04:04:26;-4.55;86.86
77247;SHT35;66279;42.820;23.374;2023-02-17T04:06:52;-4.46;87.95
77247;SHT35;66279;42.820;23.374;2023-02-17T04:09:17;-4.46;88.10
77247;SHT35;66279;42.820;23.374;2023-02-17T04:11:43;-4.46;88.38
77247;SHT35;66279;42.820;23.374;2023-02-17T04:14:08;-4.45;88.30
77247;SHT35;66279;42.820;23.374;2023-02-17T04:16:34;-4.41;89.03
77247;SHT35;66279;42.820;23.374;2023-02-17T04:19:00;-4.35;88.87
77247;SHT35;66279;42.820;23.374;2023-02-17T04:21:25;-4.33;88.08
77247;SHT35;66279;42.820;23.374;2023-02-17T04:23:51;-4.32;88.13
77247;SHT35;66279;42.820;23.374;2023-02-17T04:26:18;-4.29;88.21
77247;SHT35;66279;42.820;23.374;2023-02-17T04:28:44;-4.26;87.49
77247;SHT35;66279;42.820;23.374;2023-02-17T04:31:09;-4.21;87.82
77247;SHT35;66279;42.820;23.374;2023-02-17T04:33:35;-4.22;88.97
77247;SHT35;66279;42.820;23.374;2023-02-17T04:36:02;-4.15;89.01
77247;SHT35;66279;42.820;23.374;2023-02-17T04:38:29;-4.18;88.52
77247;SHT35;66279;42.820;23.374;2023-02-17T04:40:56;-4.19;88.18
77247;SHT35;66279;42.820;23.374;2023-02-17T04:43:22;-4.24;88.27
77247;SHT35;66279;42.820;23.374;2023-02-17T04:45:48;-4.29;88.35
77247;SHT35;66279;42.820;23.374;2023-02-17T04:48:14;-4.29;88.68
77247;SHT35;66279;42.820;23.374;2023-02-17T04:50:39;-4.33;88.35
77247;SHT35;66279;42.820;23.374;2023-02-17T04:53:05;-4.30;88.47
77247;SHT35;66279;42.820;23.374;2023-02-17T04:55:30;-4.29;88.68
77247;SHT35;66279;42.820;23.374;2023-02-17T04:57:57;-4.29;87.97
77247;SHT35;66279;42.820;23.374;2023-02-17T05:00:23;-4.35;87.40
77247;SHT35;66279;42.820;23.374;2023-02-17T05:02:48;-4.38;87.15
77247;SHT35;66279;42.820;23.374;2023-02-17T05:05:14;-4.41;87.58
77247;SHT35;66279;42.820;23.374;2023-02-17T05:07:41;-4.38;87.45
77247;SHT35;66279;42.820;23.374;2023-02-17T05:10:07;-4.33;88.83
77247;SHT35;66279;42.820;23.374;2023-02-17T05:12:33;-4.32;88.26
77247;SHT35;66279;42.820;23.374;2023-02-17T05:15:00;-4.32;88.22
77247;SHT35;66279;42.820;23.374;2023-02-17T05:17:25;-4.32;88.87
77247;SHT35;66279;42.820;23.374;2023-02-17T05:19:51;-4.28;88.89
77247;SHT35;66279;42.820;23.374;2023-02-17T05:22:16;-4.18;89.35
77247;SHT35;66279;42.820;23.374;2023-02-17T05:24:42;-4.09;89.17
77247;SHT35;66279;42.820;23.374;2023-02-17T05:27:07;-4.12;89.14
77247;SHT35;66279;42.820;23.374;2023-02-17T05:29:33;-4.07;89.08
77247;SHT35;66279;42.820;23.374;2023-02-17T05:31:59;-4.04;89.01
77247;SHT35;66279;42.820;23.374;2023-02-17T05:34:25;-4.02;88.46
77247;SHT35;66279;42.820;23.374;2023-02-17T05:36:50;-3.93;89.20
77247;SHT35;66279;42.820;23.374;2023-02-17T05:39:16;-3.87;89.06
77247;SHT35;66279;42.820;23.374;2023-02-17T05:41:41;-3.86;88.56
77247;SHT35;66279;42.820;23.374;2023-02-17T05:44:07;-3.81;87.95
77247;SHT35;66279;42.820;23.374;2023-02-17T05:46:32;-3.83;87.82
77247;SHT35;66279;42.820;23.374;2023-02-17T05:48:58;-3.84;88.07
77247;SHT35;66279;42.820;23.374;2023-02-17T05:51:23;-3.80;87.87
77247;SHT35;66279;42.820;23.374;2023-02-17T05:53:49;-3.74;87.49
77247;SHT35;66279;42.820;23.374;2023-02-17T05:56:14;-3.70;87.80
77247;SHT35;66279;42.820;23.374;2023-02-17T05:58:40;-3.66;87.55
77247;SHT35;66279;42.820;23.374;2023-02-17T06:01:10;-3.64;87.58
77247;SHT35;66279;42.820;23.374;2023-02-17T06:03:36;-3.62;87.35
77247;SHT35;66279;42.820;23.374;2023-02-17T06:06:01;-3.52;87.53
77247;SHT35;66279;42.820;23.374;2023-02-17T06:08:27;-3.46;87.73
77247;SHT35;66279;42.820;23.374;2023-02-17T06:10:53;-3.32;87.58
77247;SHT35;66279;42.820;23.374;2023-02-17T06:13:19;-3.32;86.20
77247;SHT35;66279;42.820;23.374;2023-02-17T06:15:45;-3.20;86.25
77247;SHT35;66279;42.820;23.374;2023-02-17T06:18:11;-3.11;86.38
77247;SHT35;66279;42.820;23.374;2023-02-17T06:20:37;-2.97;86.56
77247;SHT35;66279;42.820;23.374;2023-02-17T06:23:02;-2.80;86.32
77247;SHT35;66279;42.820;23.374;2023-02-17T06:25:28;-2.63;85.54
77247;SHT35;66279;42.820;23.374;2023-02-17T06:27:53;-2.56;84.91
77247;SHT35;66279;42.820;23.374;2023-02-17T06:30:19;-2.47;85.81
77247;SHT35;66279;42.820;23.374;2023-02-17T06:32:46;-2.32;85.15
77247;SHT35;66279;42.820;23.374;2023-02-17T06:35:11;-2.26;84.92
77247;SHT35;66279;42.820;23.374;2023-02-17T06:37:37;-2.19;84.83
77247;SHT35;66279;42.820;23.374;2023-02-17T06:40:04;-2.10;84.76
77247;SHT35;66279;42.820;23.374;2023-02-17T06:42:29;-1.98;84.89
77247;SHT35;66279;42.820;23.374;2023-02-17T06:44:55;-1.92;84.39
77247;SHT35;66279;42.820;23.374;2023-02-17T06:47:20;-1.79;84.80
77247;SHT35;66279;42.820;23.374;2023-02-17T06:49:46;-1.70;84.68
77247;SHT35;66279;42.820;23.374;2023-02-17T06:52:11;-1.54;84.63
77247;SHT35;66279;42.820;23.374;2023-02-17T06:54:37;-1.37;83.97
77247;SHT35;66279;42.820;23.374;2023-02-17T06:57:02;-1.20;83.75
77247;SHT35;66279;42.820;23.374;2023-02-17T06:59:28;-1.06;83.38
77247;SHT35;66279;42.820;23.374;2023-02-17T07:01:55;-0.85;83.60
77247;SHT35;66279;42.820;23.374;2023-02-17T07:04:20;-0.60;83.57
77247;SHT35;66279;42.820;23.374;2023-02-17T07:06:46;-0.37;82.26
77247;SHT35;66279;42.820;23.374;2023-02-17T07:09:12;-0.19;81.36
77247;SHT35;66279;42.820;23.374;2023-02-17T07:11:38;0.05;80.99
77247;SHT35;66279;42.820;23.374;2023-02-17T07:14:04;0.26;81.26
77247;SHT35;66279;42.820;23.374;2023-02-17T07:16:30;0.48;80.91
77247;SHT35;66279;42.820;23.374;2023-02-17T07:18:55;0.63;80.14
77247;SHT35;66279;42.820;23.374;2023-02-17T07:21:21;0.83;80.30
77247;SHT35;66279;42.820;23.374;2023-02-17T07:23:46;0.99;79.03
77247;SHT35;66279;42.820;23.374;2023-02-17T07:26:12;1.14;78.31
77247;SHT35;66279;42.820;23.374;2023-02-17T07:28:39;1.34;77.53
77247;SHT35;66279;42.820;23.374;2023-02-17T07:31:10;1.56;77.28
77247;SHT35;66279;42.820;23.374;2023-02-17T07:33:36;1.71;76.57
77247;SHT35;66279;42.820;23.374;2023-02-17T07:36:10;2.23;74.69
77247;SHT35;66279;42.820;23.374;2023-02-17T07:38:37;2.82;72.35
77247;SHT35;66279;42.820;23.374;2023-02-17T07:41:17;3.20;71.72
77247;SHT35;66279;42.820;23.374;2023-02-17T07:43:44;3.43;71.78
77247;SHT35;66279;42.820;23.374;2023-02-17T07:46:10;3.58;71.67
77247;SHT35;66279;42.820;23.374;2023-02-17T07:48:37;3.79;71.12
77247;SHT35;66279;42.820;23.374;2023-02-17T07:51:10;3.95;70.80
77247;SHT35;66279;42.820;23.374;2023-02-17T07:53:36;4.20;71.05
77247;SHT35;66279;42.820;23.374;2023-02-17T07:56:04;4.38;69.54
77247;SHT35;66279;42.820;23.374;2023-02-17T07:58:34;4.64;68.35
77247;SHT35;66279;42.820;23.374;2023-02-17T08:01:11;4.91;68.22
77247;SHT35;66279;42.820;23.374;2023-02-17T08:03:37;5.31;66.14
77247;SHT35;66279;42.820;23.374;2023-02-17T08:06:03;5.58;66.45
77247;SHT35;66279;42.820;23.374;2023-02-17T08:08:29;5.87;68.58
77247;SHT35;66279;42.820;23.374;2023-02-17T08:11:15;6.22;65.25
77247;SHT35;66279;42.820;23.374;2023-02-17T08:13:59;6.53;63.61
77247;SHT35;66279;42.820;23.374;2023-02-17T08:16:25;6.85;63.44
77247;SHT35;66279;42.820;23.374;2023-02-17T08:18:54;6.99;60.32
77247;SHT35;66279;42.820;23.374;2023-02-17T08:21:24;7.28;59.51
77247;SHT35;66279;42.820;23.374;2023-02-17T08:23:50;7.62;61.69
77247;SHT35;66279;42.820;23.374;2023-02-17T08:26:16;7.90;59.46
77247;SHT35;66279;42.820;23.374;2023-02-17T08:28:43;8.16;57.07
77247;SHT35;66279;42.820;23.374;2023-02-17T08:31:24;8.36;55.52
77247;SHT35;66279;42.820;23.374;2023-02-17T08:33:50;8.44;55.18
77247;SHT35;66279;42.820;23.374;2023-02-17T08:36:16;8.67;54.91
77247;SHT35;66279;42.820;23.374;2023-02-17T08:38:45;8.89;55.18
77247;SHT35;66279;42.820;23.374;2023-02-17T08:41:17;9.30;56.21
77247;SHT35;66279;42.820;23.374;2023-02-17T08:43:43;9.58;51.02
77247;SHT35;66279;42.820;23.374;2023-02-17T08:46:10;9.78;52.57
77247;SHT35;66279;42.820;23.374;2023-02-17T08:48:36;10.01;49.82
77247;SHT35;66279;42.820;23.374;2023-02-17T08:51:02;10.22;49.52
77247;SHT35;66279;42.820;23.374;2023-02-17T08:53:28;10.52;48.31
77247;SHT35;66279;42.820;23.374;2023-02-17T08:55:53;10.79;47.03
77247;SHT35;66279;42.820;23.374;2023-02-17T08:58:19;11.07;47.55
77247;SHT35;66279;42.820;23.374;2023-02-17T09:00:44;11.21;45.77
77247;SHT35;66279;42.820;23.374;2023-02-17T09:03:10;11.32;45.70
77247;SHT35;66279;42.820;23.374;2023-02-17T09:05:36;11.52;44.94
77247;SHT35;66279;42.820;23.374;2023-02-17T09:08:02;11.72;45.20
77247;SHT35;66279;42.820;23.374;2023-02-17T09:10:27;12.03;44.36
77247;SHT35;66279;42.820;23.374;2023-02-17T09:12:53;12.23;44.04
77247;SHT35;66279;42.820;23.374;2023-02-17T09:15:18;12.44;42.27
77247;SHT35;66279;42.820;23.374;2023-02-17T09:17:44;12.51;42.19
77247;SHT35;66279;42.820;23.374;2023-02-17T09:20:10;12.91;43.18
77247;SHT35;66279;42.820;23.374;2023-02-17T09:22:36;13.18;42.67
77247;SHT35;66279;42.820;23.374;2023-02-17T09:25:02;13.22;39.53
77247;SHT35;66279;42.820;23.374;2023-02-17T09:27:28;13.43;39.89
77247;SHT35;66279;42.820;23.374;2023-02-17T09:29:54;13.51;40.08
77247;SHT35;66279;42.820;23.374;2023-02-17T09:32:19;13.66;38.02
77247;SHT35;66279;42.820;23.374;2023-02-17T09:34:45;13.68;37.37
77247;SHT35;66279;42.820;23.374;2023-02-17T09:37:20;13.71;37.59
77247;SHT35;66279;42.820;23.374;2023-02-17T09:39:47;13.66;36.74
77247;SHT35;66279;42.820;23.374;2023-02-17T09:42:22;13.88;38.22
77247;SHT35;66279;42.820;23.374;2023-02-17T09:45:09;14.19;36.73
77247;SHT35;66279;42.820;23.374;2023-02-17T09:48:05;14.17;35.09
77247;SHT35;66279;42.820;23.374;2023-02-17T09:50:53;14.45;36.41
77247;SHT35;66279;42.820;23.374;2023-02-17T09:55:53;14.40;35.54
77247;SHT35;66279;42.820;23.374;2023-02-17T09:58:35;14.49;35.18
77247;SHT35;66279;42.820;23.374;2023-02-17T10:01:06;14.86;35.48
77247;SHT35;66279;42.820;23.374;2023-02-17T10:03:44;14.93;34.01
77247;SHT35;66279;42.820;23.374;2023-02-17T10:06:15;15.16;35.08
77247;SHT35;66279;42.820;23.374;2023-02-17T10:09:10;15.30;32.57
77247;SHT35;66279;42.820;23.374;2023-02-17T10:12:02;15.54;33.87
77247;SHT35;66279;42.820;23.374;2023-02-17T10:17:14;15.21;32.06
77247;SHT35;66279;42.820;23.374;2023-02-17T10:20:03;15.47;34.30
77247;SHT35;66279;42.820;23.374;2023-02-17T10:22:31;15.44;30.16
77247;SHT35;66279;42.820;23.374;2023-02-17T10:24:59;15.72;31.87
77247;SHT35;66279;42.820;23.374;2023-02-17T10:30:22;15.90;31.79
77247;SHT35;66279;42.820;23.374;2023-02-17T10:40:46;15.96;29.55
77247;SHT35;66279;42.820;23.374;2023-02-17T10:43:21;16.00;29.92
77247;SHT35;66279;42.820;23.374;2023-02-17T10:45:48;16.14;30.67
77247;SHT35;66279;42.820;23.374;2023-02-17T10:48:25;16.09;29.79
77247;SHT35;66279;42.820;23.374;2023-02-17T10:50:55;16.02;29.22
77247;SHT35;66279;42.820;23.374;2023-02-17T10:53:25;15.89;30.02
77247;SHT35;66279;42.820;23.374;2023-02-17T10:56:10;15.92;30.83
77247;SHT35;66279;42.820;23.374;2023-02-17T10:58:48;15.76;29.52
77247;SHT35;66279;42.820;23.374;2023-02-17T11:01:14;15.89;30.59
77247;SHT35;66279;42.820;23.374;2023-02-17T11:03:40;15.86;31.28
77247;SHT35;66279;42.820;23.374;2023-02-17T11:06:26;16.05;30.23
77247;SHT35;66279;42.820;23.374;2023-02-17T11:08:56;16.05;29.72
77247;SHT35;66279;42.820;23.374;2023-02-17T11:11:30;16.06;29.94
77247;SHT35;66279;42.820;23.374;2023-02-17T11:19:06;15.90;29.62
77247;SHT35;66279;42.820;23.374;2023-02-17T11:21:42;16.03;30.85
77247;SHT35;66279;42.820;23.374;2023-02-17T11:24:11;16.00;29.08
77247;SHT35;66279;42.820;23.374;2023-02-17T11:26:36;16.02;30.10
77247;SHT35;66279;42.820;23.374;2023-02-17T11:29:20;15.99;28.83
77247;SHT35;66279;42.820;23.374;2023-02-17T11:31:58;15.92;29.83
77247;SHT35;66279;42.820;23.374;2023-02-17T11:34:27;15.76;29.37
77247;SHT35;66279;42.820;23.374;2023-02-17T11:37:04;15.52;29.44
77247;SHT35;66279;42.820;23.374;2023-02-17T12:35:21;16.71;28.01
77247;SHT35;66279;42.820;23.374;2023-02-17T12:38:02;16.43;27.40
77247;SHT35;66279;42.820;23.374;2023-02-17T12:40:40;16.28;26.55
77247;SHT35;66279;42.820;23.374;2023-02-17T12:43:48;16.37;26.61
77247;SHT35;66279;42.820;23.374;2023-02-17T12:46:15;16.21;27.18
77247;SHT35;66279;42.820;23.374;2023-02-17T12:48:54;16.12;26.02
77247;SHT35;66279;42.820;23.374;2023-02-17T12:51:32;16.10;26.74
77247;SHT35;66279;42.820;23.374;2023-02-17T12:59:09;16.38;27.28
77247;SHT35;66279;42.820;23.374;2023-02-17T13:01:36;16.27;28.05
77247;SHT35;66279;42.820;23.374;2023-02-17T13:04:04;16.36;27.30
77247;SHT35;66279;42.820;23.374;2023-02-17T13:06:41;16.34;27.74
77247;SHT35;66279;42.820;23.374;2023-02-17T13:12:10;16.40;28.66
77247;SHT35;66279;42.820;23.374;2023-02-17T13:15:01;16.51;27.69
77247;SHT35;66279;42.820;23.374;2023-02-17T13:17:34;16.55;27.41
77247;SHT35;66279;42.820;23.374;2023-02-17T13:22:36;16.41;26.21
77247;SHT35;66279;42.820;23.374;2023-02-17T13:25:02;16.23;27.02
77247;SHT35;66279;42.820;23.374;2023-02-17T13:32:33;15.93;27.69
77247;SHT35;66279;42.820;23.374;2023-02-17T13:39:59;15.86;27.27
77247;SHT35;66279;42.820;23.374;2023-02-17T13:42:35;15.86;28.12
77247;SHT35;66279;42.820;23.374;2023-02-17T13:45:15;15.75;28.57
77247;SHT35;66279;42.820;23.374;2023-02-17T13:47:42;15.75;28.31
77247;SHT35;66279;42.820;23.374;2023-02-17T13:50:34;15.68;28.46
77247;SHT35;66279;42.820;23.374;2023-02-17T13:53:19;15.59;28.28
77247;SHT35;66279;42.820;23.374;2023-02-17T13:55:45;15.44;28.44
77247;SHT35;66279;42.820;23.374;2023-02-17T13:58:10;15.32;27.22
77247;SHT35;66279;42.820;23.374;2023-02-17T14:00:36;15.27;27.49
77247;SHT35;66279;42.820;23.374;2023-02-17T14:03:17;15.18;28.50
77247;SHT35;66279;42.820;23.374;2023-02-17T14:05:45;15.20;28.65
77247;SHT35;66279;42.820;23.374;2023-02-17T14:08:26;15.10;28.21
77247;SHT35;66279;42.820;23.374;2023-02-17T14:10:53;15.00;28.39
77247;SHT35;66279;42.820;23.374;2023-02-17T14:13:19;15.03;28.71
77247;SHT35;66279;42.820;23.374;2023-02-17T14:16:03;14.90;28.96
77247;SHT35;66279;42.820;23.374;2023-02-17T14:18:36;14.81;29.29
77247;SHT35;66279;42.820;23.374;2023-02-17T14:21:08;14.79;29.75
77247;SHT35;66279;42.820;23.374;2023-02-17T14:24:00;14.79;30.15
77247;SHT35;66279;42.820;23.374;2023-02-17T14:26:42;14.81;30.40
77247;SHT35;66279;42.820;23.374;2023-02-17T14:29:09;14.87;29.77
77247;SHT35;66279;42.820;23.374;2023-02-17T14:34:10;14.87;30.70
77247;SHT35;66279;42.820;23.374;2023-02-17T14:36:37;14.73;29.68
77247;SHT35;66279;42.820;23.374;2023-02-17T14:39:10;14.80;30.53
77247;SHT35;66279;42.820;23.374;2023-02-17T14:41:38;14.84;30.61
77247;SHT35;66279;42.820;23.374;2023-02-17T14:44:03;14.77;30.06
77247;SHT35;66279;42.820;23.374;2023-02-17T14:46:31;14.72;29.88
77247;SHT35;66279;42.820;23.374;2023-02-17T14:51:41;14.46;30.40
77247;SHT35;66279;42.820;23.374;2023-02-17T14:56:37;14.39;31.19
77247;SHT35;66279;42.820;23.374;2023-02-17T15:01:32;14.30;31.14
77247;SHT35;66279;42.820;23.374;2023-02-17T15:03:58;14.30;31.52
77247;SHT35;66279;42.820;23.374;2023-02-17T15:06:29;14.21;31.26
77247;SHT35;66279;42.820;23.374;2023-02-17T15:08:55;14.01;31.82
77247;SHT35;66279;42.820;23.374;2023-02-17T15:16:31;13.77;30.76
77247;SHT35;66279;42.820;23.374;2023-02-17T15:18:57;13.64;30.62
77247;SHT35;66279;42.820;23.374;2023-02-17T15:21:30;13.56;31.29
77247;SHT35;66279;42.820;23.374;2023-02-17T15:23:58;13.50;30.90
77247;SHT35;66279;42.820;23.374;2023-02-17T15:26:24;13.47;31.73
77247;SHT35;66279;42.820;23.374;2023-02-17T15:28:50;13.36;31.21
77247;SHT35;66279;42.820;23.374;2023-02-17T15:31:16;13.29;32.06
77247;SHT35;66279;42.820;23.374;2023-02-17T15:33:50;13.03;31.97
77247;SHT35;66279;42.820;23.374;2023-02-17T15:36:19;12.96;32.61
77247;SHT35;66279;42.820;23.374;2023-02-17T15:38:44;12.87;32.44
77247;SHT35;66279;42.820;23.374;2023-02-17T15:41:21;12.78;32.41
77247;SHT35;66279;42.820;23.374;2023-02-17T15:43:48;12.64;32.32
77247;SHT35;66279;42.820;23.374;2023-02-17T15:46:16;12.51;32.69
77247;SHT35;66279;42.820;23.374;2023-02-17T15:48:43;12.45;33.42
77247;SHT35;66279;42.820;23.374;2023-02-17T15:51:11;12.34;33.65
77247;SHT35;66279;42.820;23.374;2023-02-17T15:53:40;12.21;33.19
77247;SHT35;66279;42.820;23.374;2023-02-17T15:56:19;12.12;33.74
77247;SHT35;66279;42.820;23.374;2023-02-17T15:58:46;11.85;34.33
77247;SHT35;66279;42.820;23.374;2023-02-17T16:01:16;11.76;33.91
77247;SHT35;66279;42.820;23.374;2023-02-17T16:03:43;11.62;34.28
77247;SHT35;66279;42.820;23.374;2023-02-17T16:06:09;11.27;35.54
77247;SHT35;66279;42.820;23.374;2023-02-17T16:08:35;10.89;36.25
77247;SHT35;66279;42.820;23.374;2023-02-17T16:11:00;10.87;35.86
77247;SHT35;66279;42.820;23.374;2023-02-17T16:13:26;10.64;37.53
77247;SHT35;66279;42.820;23.374;2023-02-17T16:15:54;10.42;37.38
77247;SHT35;66279;42.820;23.374;2023-02-17T16:18:22;10.25;37.64
77247;SHT35;66279;42.820;23.374;2023-02-17T16:20:49;10.16;37.78
77247;SHT35;66279;42.820;23.374;2023-02-17T16:23:15;9.95;38.61
77247;SHT35;66279;42.820;23.374;2023-02-17T16:25:43;9.85;39.15
77247;SHT35;66279;42.820;23.374;2023-02-17T16:28:18;9.66;40.35
77247;SHT35;66279;42.820;23.374;2023-02-17T16:30:44;9.58;39.88
77247;SHT35;66279;42.820;23.374;2023-02-17T16:33:11;9.40;39.99
77247;SHT35;66279;42.820;23.374;2023-02-17T16:35:37;9.30;40.60
77247;SHT35;66279;42.820;23.374;2023-02-17T16:38:16;9.27;40.13
77247;SHT35;66279;42.820;23.374;2023-02-17T16:40:45;9.18;39.91
77247;SHT35;66279;42.820;23.374;2023-02-17T16:43:21;9.14;40.06
77247;SHT35;66279;42.820;23.374;2023-02-17T16:45:59;8.98;41.23
77247;SHT35;66279;42.820;23.374;2023-02-17T16:48:27;8.81;41.55
77247;SHT35;66279;42.820;23.374;2023-02-17T16:50:52;8.41;42.60
77247;SHT35;66279;42.820;23.374;2023-02-17T16:53:18;8.06;44.36
77247;SHT35;66279;42.820;23.374;2023-02-17T16:55:44;7.93;43.83
77247;SHT35;66279;42.820;23.374;2023-02-17T16:58:22;7.55;45.21
77247;SHT35;66279;42.820;23.374;2023-02-17T17:00:51;7.45;45.63
77247;SHT35;66279;42.820;23.374;2023-02-17T17:03:18;7.24;45.52
77247;SHT35;66279;42.820;23.374;2023-02-17T17:05:43;7.16;45.73
77247;SHT35;66279;42.820;23.374;2023-02-17T17:08:13;6.77;47.26
77247;SHT35;66279;42.820;23.374;2023-02-17T17:10:42;6.56;47.56
77247;SHT35;66279;42.820;23.374;2023-02-17T17:13:08;6.41;48.23
77247;SHT35;66279;42.820;23.374;2023-02-17T17:15:40;6.07;49.35
77247;SHT35;66279;42.820;23.374;2023-02-17T17:18:08;5.80;49.50
77247;SHT35;66279;42.820;23.374;2023-02-17T17:20:36;5.66;50.44
77247;SHT35;66279;42.820;23.374;2023-02-17T17:23:12;5.53;50.65
77247;SHT35;66279;42.820;23.374;2023-02-17T17:25:41;5.40;50.92
77247;SHT35;66279;42.820;23.374;2023-02-17T17:28:12;5.29;51.23
77247;SHT35;66279;42.820;23.374;2023-02-17T17:30:39;4.91;52.54
77247;SHT35;66279;42.820;23.374;2023-02-17T17:33:04;4.63;53.85
77247;SHT35;66279;42.820;23.374;2023-02-17T17:35:30;4.22;54.77
77247;SHT35;66279;42.820;23.374;2023-02-17T17:37:57;4.12;56.15
77247;SHT35;66279;42.820;23.374;2023-02-17T17:40:34;4.32;55.28
77247;SHT35;66279;42.820;23.374;2023-02-17T17:43:16;4.61;54.21
77247;SHT35;66279;42.820;23.374;2023-02-17T17:45:44;4.59;53.73
77247;SHT35;66279;42.820;23.374;2023-02-17T17:48:14;4.60;53.15
77247;SHT35;66279;42.820;23.374;2023-02-17T17:50:40;4.45;53.63